createdAt,value
2022-08-31T00:02:52.209Z,15.40
2022-08-31T00:08:53.959Z,15.30
2022-08-31T00:14:55.694Z,15.20
2022-08-31T00:20:58.443Z,15.10
2022-08-31T00:27:00.699Z,15.10
2022-08-31T00:33:02.672Z,15.00
2022-08-31T00:39:06.153Z,14.90
2022-08-31T00:45:10.171Z,14.90
2022-08-31T00:51:13.199Z,14.80
2022-08-31T00:57:24.699Z,14.80
2022-08-31T01:03:36.354Z,14.70
2022-08-31T01:09:41.307Z,14.70
2022-08-31T01:16:01.893Z,14.50
2022-08-31T01:22:03.659Z,14.40
2022-08-31T01:28:08.884Z,14.30
2022-08-31T01:34:11.890Z,14.20
2022-08-31T01:40:13.688Z,14.10
2022-08-31T01:46:16.173Z,13.90
2022-08-31T01:52:17.989Z,13.80
2022-08-31T01:58:20.454Z,13.70
2022-08-31T02:04:44.579Z,13.50
2022-08-31T02:10:46.564Z,13.40
2022-08-31T02:16:49.399Z,13.20
2022-08-31T02:22:51.884Z,13.10
2022-08-31T02:28:54.116Z,13.00
2022-08-31T02:34:56.143Z,13.00
2022-08-31T02:40:59.331Z,12.90
2022-08-31T02:47:01.127Z,12.80
2022-08-31T02:53:29.171Z,12.70
2022-08-31T02:59:31.012Z,12.80
2022-08-31T03:05:33.151Z,12.80
2022-08-31T03:11:34.932Z,12.70
2022-08-31T03:17:36.815Z,12.80
2022-08-31T03:23:39.189Z,12.80
2022-08-31T03:29:42.426Z,12.90
2022-08-31T03:35:53.179Z,13.00
2022-08-31T03:41:55.195Z,13.00
2022-08-31T03:47:59.580Z,13.10
2022-08-31T03:54:01.675Z,13.20
2022-08-31T04:00:06.227Z,13.30
2022-08-31T04:06:16.627Z,13.40
2022-08-31T04:12:38.655Z,13.50
2022-08-31T04:18:49.238Z,13.50
2022-08-31T04:24:51.030Z,13.60
2022-08-31T04:30:52.989Z,13.70
2022-08-31T04:36:55.869Z,13.80
2022-08-31T04:42:58.022Z,13.80
2022-08-31T04:48:59.872Z,13.90
2022-08-31T04:55:02.859Z,14.10
2022-08-31T05:01:09.646Z,14.20
2022-08-31T05:07:26.777Z,14.30
2022-08-31T05:13:31.168Z,14.40
2022-08-31T05:19:35.957Z,14.50
2022-08-31T05:25:40.520Z,14.60
2022-08-31T05:31:44.986Z,14.70
2022-08-31T05:37:51.030Z,14.80
2022-08-31T05:43:52.888Z,14.90
2022-08-31T05:49:55.477Z,15.10
2022-08-31T05:56:00.743Z,15.20
2022-08-31T06:02:03.426Z,15.30
2022-08-31T06:08:11.858Z,15.40
2022-08-31T06:14:16.999Z,15.60
2022-08-31T06:20:20.175Z,15.70
2022-08-31T06:26:24.098Z,16.00
2022-08-31T06:32:26.233Z,16.10
2022-08-31T06:38:37.282Z,16.30
2022-08-31T06:44:57.777Z,16.60
2022-08-31T06:51:13.089Z,16.90
2022-08-31T06:57:15.122Z,17.30
2022-08-31T07:03:37.529Z,17.40
2022-08-31T07:09:41.086Z,17.50
2022-08-31T07:15:43.094Z,17.70
2022-08-31T07:21:50.864Z,17.70
2022-08-31T07:27:55.508Z,18.20
2022-08-31T07:33:57.904Z,18.60
2022-08-31T07:40:20.000Z,18.90
2022-08-31T07:46:30.144Z,19.30
2022-08-31T07:52:33.117Z,19.50
2022-08-31T07:58:53.685Z,19.60
2022-08-31T08:04:58.755Z,19.80
2022-08-31T08:11:25.250Z,19.80
2022-08-31T08:17:53.246Z,19.80
2022-08-31T08:24:00.568Z,19.90
2022-08-31T08:30:21.146Z,19.70
2022-08-31T08:36:23.289Z,19.60
2022-08-31T08:42:26.482Z,19.60
2022-08-31T08:48:32.708Z,19.80
2022-08-31T08:54:38.774Z,20.10
2022-08-31T09:00:46.396Z,20.20
2022-08-31T09:06:56.728Z,20.40
2022-08-31T09:13:18.333Z,20.70
2022-08-31T09:19:20.873Z,20.90
2022-08-31T09:25:35.933Z,21.10
2022-08-31T09:31:48.441Z,21.00
2022-08-31T09:38:03.130Z,21.00
2022-08-31T09:44:29.108Z,21.30
2022-08-31T09:50:36.544Z,21.30
2022-08-31T09:56:55.641Z,21.30
2022-08-31T10:03:08.956Z,21.20
2022-08-31T10:09:37.193Z,21.20
2022-08-31T10:15:39.487Z,21.30
2022-08-31T10:21:52.279Z,21.40
2022-08-31T10:27:57.688Z,21.40
2022-08-31T10:34:46.584Z,21.30
2022-08-31T10:41:11.599Z,21.50
2022-08-31T10:47:32.547Z,21.50
2022-08-31T10:53:51.567Z,22.00
2022-08-31T11:00:00.650Z,22.30
2022-08-31T11:06:38.264Z,22.70
2022-08-31T11:12:44.828Z,22.50
2022-08-31T11:19:09.298Z,22.50
2022-08-31T11:25:48.101Z,22.70
2022-08-31T11:31:50.452Z,23.00
2022-08-31T11:37:56.648Z,22.90
2022-08-31T11:44:04.582Z,22.80
2022-08-31T11:50:12.149Z,22.50
2022-08-31T11:56:15.176Z,22.40
2022-08-31T12:02:20.236Z,22.20
2022-08-31T12:08:27.949Z,22.00
2022-08-31T12:14:51.223Z,21.80
2022-08-31T12:21:35.737Z,22.30
2022-08-31T12:27:47.613Z,22.70
2022-08-31T12:34:01.503Z,23.00
2022-08-31T12:40:24.218Z,23.60
2022-08-31T12:46:54.228Z,24.20
2022-08-31T12:53:14.505Z,24.80
2022-08-31T12:59:21.801Z,25.10
2022-08-31T13:05:27.966Z,25.60
2022-08-31T13:11:41.623Z,25.30
2022-08-31T13:17:43.551Z,25.40
2022-08-31T13:23:48.098Z,25.10
2022-08-31T13:29:51.194Z,24.00
2022-08-31T13:36:03.762Z,24.00
2022-08-31T13:42:12.532Z,24.30
2022-08-31T13:48:20.553Z,23.80
2022-08-31T13:54:32.217Z,23.40
2022-08-31T14:00:43.291Z,24.10
2022-08-31T14:06:52.241Z,24.90
2022-08-31T14:12:59.919Z,25.80
2022-08-31T14:19:02.145Z,26.00
2022-08-31T14:25:04.649Z,26.10
2022-08-31T14:31:21.650Z,25.30
2022-08-31T14:37:28.671Z,24.10
2022-08-31T14:43:31.756Z,23.80
2022-08-31T14:49:36.296Z,23.10
2022-08-31T14:55:43.321Z,22.70
2022-08-31T15:01:49.224Z,22.40
2022-08-31T15:07:53.130Z,22.30
2022-08-31T15:13:55.074Z,22.40
2022-08-31T15:19:57.326Z,23.40
2022-08-31T15:26:08.516Z,23.60
2022-08-31T15:32:10.577Z,23.80
2022-08-31T15:38:12.487Z,23.50
2022-08-31T15:44:14.363Z,23.30
2022-08-31T15:50:18.660Z,23.30
2022-08-31T15:56:23.485Z,23.40
2022-08-31T16:02:25.499Z,23.30
2022-08-31T16:08:28.510Z,23.90
2022-08-31T16:14:31.603Z,23.40
2022-08-31T16:20:34.616Z,22.90
2022-08-31T16:26:40.498Z,22.50
2022-08-31T16:32:42.353Z,22.20
2022-08-31T16:38:45.852Z,22.00
2022-08-31T16:44:48.006Z,22.60
2022-08-31T16:50:50.073Z,22.40
2022-08-31T16:56:52.173Z,22.40
2022-08-31T17:02:54.187Z,22.00
2022-08-31T17:08:57.757Z,22.00
2022-08-31T17:15:00.427Z,23.40
2022-08-31T17:21:02.189Z,24.80
2022-08-31T17:27:09.528Z,24.90
2022-08-31T17:33:12.693Z,23.80
2022-08-31T17:39:16.909Z,22.70
2022-08-31T17:45:19.171Z,21.90
2022-08-31T17:51:27.364Z,21.30
2022-08-31T17:57:29.670Z,20.90
2022-08-31T18:03:31.604Z,20.60
2022-08-31T18:09:37.452Z,20.10
2022-08-31T18:15:39.259Z,19.70
2022-08-31T18:21:42.098Z,19.30
2022-08-31T18:27:45.284Z,18.90
2022-08-31T18:33:51.622Z,18.80
2022-08-31T18:40:12.608Z,18.50
2022-08-31T18:46:14.541Z,18.40
2022-08-31T18:52:19.569Z,18.40
2022-08-31T18:58:21.394Z,18.50
2022-08-31T19:04:23.202Z,18.50
2022-08-31T19:10:25.455Z,18.30
2022-08-31T19:16:28.906Z,18.10
2022-08-31T19:22:30.793Z,17.80
2022-08-31T19:28:32.562Z,17.60
2022-08-31T19:34:37.627Z,17.30
2022-08-31T19:40:40.281Z,17.00
2022-08-31T19:46:52.518Z,16.70
2022-08-31T19:52:54.600Z,16.40
2022-08-31T19:58:57.606Z,16.10
2022-08-31T20:04:59.473Z,15.80
2022-08-31T20:11:01.418Z,15.50
2022-08-31T20:17:03.401Z,15.20
2022-08-31T20:23:06.813Z,15.00
2022-08-31T20:29:10.320Z,14.70
2022-08-31T20:35:13.547Z,14.50
2022-08-31T20:41:16.151Z,14.30
2022-08-31T20:47:36.409Z,14.10
2022-08-31T20:53:42.749Z,13.90
2022-08-31T20:59:45.523Z,13.80
2022-08-31T21:05:47.498Z,13.80
2022-08-31T21:11:49.591Z,13.70
2022-08-31T21:17:55.086Z,13.70
2022-08-31T21:23:58.194Z,13.60
2022-08-31T21:30:02.232Z,13.40
2022-08-31T21:36:06.845Z,13.20
2022-08-31T21:42:08.571Z,13.10
2022-08-31T21:48:10.301Z,13.00
2022-08-31T21:54:13.697Z,12.90
2022-08-31T22:00:20.375Z,12.70
2022-08-31T22:06:31.191Z,12.40
2022-08-31T22:12:33.093Z,12.30
2022-08-31T22:19:00.309Z,12.10
2022-08-31T22:24:56.622Z,12.10
2022-08-31T22:31:00.844Z,12.00
2022-08-31T22:37:04.515Z,11.90
2022-08-31T22:43:06.302Z,11.90
2022-08-31T22:49:08.442Z,11.90
2022-08-31T22:55:10.328Z,11.80
2022-08-31T23:01:36.792Z,11.70
2022-08-31T23:07:39.489Z,11.50
2022-08-31T23:13:55.504Z,11.40
2022-08-31T23:19:57.470Z,11.30
2022-08-31T23:26:04.107Z,11.10
2022-08-31T23:32:07.267Z,11.30
2022-08-31T23:38:09.102Z,11.40
2022-08-31T23:44:12.175Z,11.50
2022-08-31T23:50:14.862Z,11.50
2022-08-31T23:56:16.612Z,11.60
